Spencer, Nebraska
Current Conditions -  °F | °C
As of 12:35 AM on Saturday 25 Oct 2014 (Local Time) from KONL Reporting Station
Clear Clear  
Wind Chill: 47°   Ceiling: Unl
Heat Index: 49°   Visibility: 10mi
Dew Point: 42°   Wind: 5mph
Humidity: 77%   Direction: 240°WSW
Pressure: 30.05"   Gusts: NA
Location:  42.87°N, 98.7°W
Report Text: KONL 250535Z AUTO 24004KT 10SM CLR 09/06 A3005 RMK AO2 T00940055
Loading
Personal Weather Stations






























Interactive Weather Map
Tropical Storm Tracking
New forecast layout! Learn more

10-Day Weather Forecast

Advertisements
Track Severe Weather on mobile